sensor_id;sensor_type;location;lat;lon;timestamp;P1;durP1;ratioP1;P2;durP2;ratioP2
19673;SDS011;9986;50.610;7.230;2023-01-24T00:04:39;6.47;;;5.73;;
19673;SDS011;9986;50.610;7.230;2023-01-24T00:07:26;5.57;;;5.00;;
19673;SDS011;9986;50.610;7.230;2023-01-24T00:10:12;6.97;;;6.27;;
19673;SDS011;9986;50.610;7.230;2023-01-24T00:12:59;7.60;;;6.27;;
19673;SDS011;9986;50.610;7.230;2023-01-24T00:15:41;5.93;;;5.33;;
19673;SDS011;9986;50.610;7.230;2023-01-24T00:23:36;6.70;;;5.57;;
19673;SDS011;9986;50.610;7.230;2023-01-24T00:26:17;5.97;;;5.03;;
19673;SDS011;9986;50.610;7.230;2023-01-24T00:29:00;6.10;;;5.43;;
19673;SDS011;9986;50.610;7.230;2023-01-24T00:34:25;6.53;;;5.63;;
19673;SDS011;9986;50.610;7.230;2023-01-24T00:39:41;7.00;;;5.63;;
19673;SDS011;9986;50.610;7.230;2023-01-24T00:42:27;6.27;;;5.67;;
19673;SDS011;9986;50.610;7.230;2023-01-24T00:45:08;7.87;;;6.07;;
19673;SDS011;9986;50.610;7.230;2023-01-24T00:47:54;7.43;;;6.07;;
19673;SDS011;9986;50.610;7.230;2023-01-24T00:53:13;6.17;;;5.30;;
19673;SDS011;9986;50.610;7.230;2023-01-24T00:55:54;6.30;;;5.50;;
19673;SDS011;9986;50.610;7.230;2023-01-24T00:58:39;5.63;;;5.03;;
19673;SDS011;9986;50.610;7.230;2023-01-24T01:01:27;5.43;;;4.90;;
19673;SDS011;9986;50.610;7.230;2023-01-24T01:04:15;5.87;;;5.27;;
19673;SDS011;9986;50.610;7.230;2023-01-24T01:06:55;5.47;;;4.97;;
19673;SDS011;9986;50.610;7.230;2023-01-24T01:09:41;5.73;;;5.17;;
19673;SDS011;9986;50.610;7.230;2023-01-24T01:14:50;6.80;;;5.80;;
19673;SDS011;9986;50.610;7.230;2023-01-24T01:17:31;5.87;;;5.27;;
19673;SDS011;9986;50.610;7.230;2023-01-24T01:20:11;6.07;;;5.47;;
19673;SDS011;9986;50.610;7.230;2023-01-24T01:25:21;6.70;;;5.60;;
19673;SDS011;9986;50.610;7.230;2023-01-24T01:28:00;6.10;;;5.50;;
19673;SDS011;9986;50.610;7.230;2023-01-24T01:30:51;6.20;;;4.87;;
19673;SDS011;9986;50.610;7.230;2023-01-24T01:33:38;5.43;;;4.93;;
19673;SDS011;9986;50.610;7.230;2023-01-24T01:38:56;5.17;;;4.67;;
19673;SDS011;9986;50.610;7.230;2023-01-24T01:41:36;5.27;;;4.77;;
19673;SDS011;9986;50.610;7.230;2023-01-24T01:46:58;5.30;;;4.90;;
19673;SDS011;9986;50.610;7.230;2023-01-24T01:49:49;7.70;;;5.43;;
19673;SDS011;9986;50.610;7.230;2023-01-24T01:52:31;5.40;;;4.90;;
19673;SDS011;9986;50.610;7.230;2023-01-24T01:57:50;5.33;;;4.83;;
19673;SDS011;9986;50.610;7.230;2023-01-24T02:00:30;6.63;;;5.47;;
19673;SDS011;9986;50.610;7.230;2023-01-24T02:08:31;5.23;;;4.63;;
19673;SDS011;9986;50.610;7.230;2023-01-24T02:11:10;5.20;;;4.70;;
19673;SDS011;9986;50.610;7.230;2023-01-24T02:13:58;6.30;;;5.70;;
19673;SDS011;9986;50.610;7.230;2023-01-24T02:16:38;6.50;;;5.77;;
19673;SDS011;9986;50.610;7.230;2023-01-24T02:19:22;5.83;;;5.33;;
19673;SDS011;9986;50.610;7.230;2023-01-24T02:22:13;5.80;;;4.73;;
19673;SDS011;9986;50.610;7.230;2023-01-24T02:25:03;6.40;;;5.07;;
19673;SDS011;9986;50.610;7.230;2023-01-24T02:30:29;5.43;;;4.83;;
19673;SDS011;9986;50.610;7.230;2023-01-24T02:33:11;4.80;;;4.20;;
19673;SDS011;9986;50.610;7.230;2023-01-24T02:41:00;5.60;;;5.10;;
19673;SDS011;9986;50.610;7.230;2023-01-24T02:43:47;5.17;;;4.67;;
19673;SDS011;9986;50.610;7.230;2023-01-24T02:46:29;6.43;;;4.67;;
19673;SDS011;9986;50.610;7.230;2023-01-24T02:49:15;5.37;;;4.87;;
19673;SDS011;9986;50.610;7.230;2023-01-24T02:52:01;5.00;;;4.43;;
19673;SDS011;9986;50.610;7.230;2023-01-24T02:57:29;5.10;;;4.40;;
19673;SDS011;9986;50.610;7.230;2023-01-24T03:00:10;5.10;;;4.57;;
19673;SDS011;9986;50.610;7.230;2023-01-24T03:02:59;5.10;;;4.63;;
19673;SDS011;9986;50.610;7.230;2023-01-24T03:05:39;5.03;;;4.53;;
19673;SDS011;9986;50.610;7.230;2023-01-24T03:08:19;5.00;;;4.50;;
19673;SDS011;9986;50.610;7.230;2023-01-24T03:10:59;4.97;;;4.23;;
19673;SDS011;9986;50.610;7.230;2023-01-24T03:13:48;5.13;;;4.63;;
19673;SDS011;9986;50.610;7.230;2023-01-24T03:16:29;7.03;;;5.00;;
19673;SDS011;9986;50.610;7.230;2023-01-24T03:19:09;4.90;;;4.50;;
19673;SDS011;9986;50.610;7.230;2023-01-24T03:21:49;5.20;;;4.70;;
19673;SDS011;9986;50.610;7.230;2023-01-24T03:24:29;4.60;;;4.20;;
19673;SDS011;9986;50.610;7.230;2023-01-24T03:27:09;5.20;;;4.50;;
19673;SDS011;9986;50.610;7.230;2023-01-24T03:32:44;5.23;;;4.50;;
19673;SDS011;9986;50.610;7.230;2023-01-24T03:38:06;4.33;;;3.87;;
19673;SDS011;9986;50.610;7.230;2023-01-24T03:43:24;4.67;;;4.27;;
19673;SDS011;9986;50.610;7.230;2023-01-24T03:46:13;4.97;;;4.47;;
19673;SDS011;9986;50.610;7.230;2023-01-24T03:48:59;4.27;;;3.83;;
19673;SDS011;9986;50.610;7.230;2023-01-24T03:51:39;4.23;;;3.83;;
19673;SDS011;9986;50.610;7.230;2023-01-24T03:54:28;5.00;;;4.30;;
19673;SDS011;9986;50.610;7.230;2023-01-24T03:57:10;3.87;;;3.47;;
19673;SDS011;9986;50.610;7.230;2023-01-24T03:59:50;4.70;;;3.50;;
19673;SDS011;9986;50.610;7.230;2023-01-24T04:05:18;4.50;;;3.97;;
19673;SDS011;9986;50.610;7.230;2023-01-24T04:07:59;4.13;;;3.77;;
19673;SDS011;9986;50.610;7.230;2023-01-24T04:10:45;4.67;;;4.27;;
19673;SDS011;9986;50.610;7.230;2023-01-24T04:13:32;4.20;;;3.80;;
19673;SDS011;9986;50.610;7.230;2023-01-24T04:16:13;5.13;;;4.53;;
19673;SDS011;9986;50.610;7.230;2023-01-24T04:19:00;5.13;;;4.23;;
19673;SDS011;9986;50.610;7.230;2023-01-24T04:21:40;4.80;;;4.30;;
19673;SDS011;9986;50.610;7.230;2023-01-24T04:24:26;4.70;;;4.30;;
19673;SDS011;9986;50.610;7.230;2023-01-24T04:27:15;4.33;;;3.93;;
19673;SDS011;9986;50.610;7.230;2023-01-24T04:29:56;4.67;;;4.27;;
19673;SDS011;9986;50.610;7.230;2023-01-24T04:32:42;3.93;;;3.53;;
19673;SDS011;9986;50.610;7.230;2023-01-24T04:35:23;7.17;;;4.27;;
19673;SDS011;9986;50.610;7.230;2023-01-24T04:38:05;4.77;;;4.27;;
19673;SDS011;9986;50.610;7.230;2023-01-24T04:40:46;4.47;;;4.00;;
19673;SDS011;9986;50.610;7.230;2023-01-24T04:43:26;4.30;;;3.90;;
19673;SDS011;9986;50.610;7.230;2023-01-24T04:46:07;4.27;;;3.87;;
19673;SDS011;9986;50.610;7.230;2023-01-24T04:51:16;4.33;;;3.97;;
19673;SDS011;9986;50.610;7.230;2023-01-24T04:56:26;3.90;;;3.60;;
19673;SDS011;9986;50.610;7.230;2023-01-24T04:59:12;4.50;;;4.10;;
19673;SDS011;9986;50.610;7.230;2023-01-24T05:01:52;4.10;;;3.80;;
19673;SDS011;9986;50.610;7.230;2023-01-24T05:04:38;3.70;;;3.37;;
19673;SDS011;9986;50.610;7.230;2023-01-24T05:07:24;5.17;;;4.30;;
19673;SDS011;9986;50.610;7.230;2023-01-24T05:10:11;3.90;;;3.60;;
19673;SDS011;9986;50.610;7.230;2023-01-24T05:12:57;3.97;;;3.60;;
19673;SDS011;9986;50.610;7.230;2023-01-24T05:15:38;4.63;;;4.23;;
19673;SDS011;9986;50.610;7.230;2023-01-24T05:18:26;4.60;;;4.20;;
19673;SDS011;9986;50.610;7.230;2023-01-24T05:21:15;4.80;;;4.30;;
19673;SDS011;9986;50.610;7.230;2023-01-24T05:23:56;4.73;;;4.33;;
19673;SDS011;9986;50.610;7.230;2023-01-24T05:26:47;4.40;;;4.00;;
19673;SDS011;9986;50.610;7.230;2023-01-24T05:29:27;4.30;;;3.70;;
19673;SDS011;9986;50.610;7.230;2023-01-24T05:32:13;3.87;;;3.57;;
19673;SDS011;9986;50.610;7.230;2023-01-24T05:37:45;4.13;;;3.73;;
19673;SDS011;9986;50.610;7.230;2023-01-24T05:40:25;4.40;;;4.00;;
19673;SDS011;9986;50.610;7.230;2023-01-24T05:43:11;5.43;;;4.83;;
19673;SDS011;9986;50.610;7.230;2023-01-24T05:45:58;4.10;;;3.70;;
19673;SDS011;9986;50.610;7.230;2023-01-24T05:48:44;3.77;;;3.30;;
19673;SDS011;9986;50.610;7.230;2023-01-24T05:51:25;4.40;;;4.00;;
19673;SDS011;9986;50.610;7.230;2023-01-24T05:54:07;4.77;;;4.17;;
19673;SDS011;9986;50.610;7.230;2023-01-24T06:02:01;5.13;;;3.90;;
19673;SDS011;9986;50.610;7.230;2023-01-24T06:04:42;4.40;;;4.00;;
19673;SDS011;9986;50.610;7.230;2023-01-24T06:09:59;6.03;;;4.83;;
19673;SDS011;9986;50.610;7.230;2023-01-24T06:12:40;5.67;;;5.03;;
19673;SDS011;9986;50.610;7.230;2023-01-24T06:15:20;6.37;;;5.27;;
19673;SDS011;9986;50.610;7.230;2023-01-24T06:20:30;4.20;;;3.83;;
19673;SDS011;9986;50.610;7.230;2023-01-24T06:23:19;5.03;;;4.63;;
19673;SDS011;9986;50.610;7.230;2023-01-24T06:26:01;4.17;;;3.77;;
19673;SDS011;9986;50.610;7.230;2023-01-24T06:28:42;4.73;;;4.33;;
19673;SDS011;9986;50.610;7.230;2023-01-24T06:31:26;4.13;;;3.70;;
19673;SDS011;9986;50.610;7.230;2023-01-24T06:34:13;6.03;;;4.77;;
19673;SDS011;9986;50.610;7.230;2023-01-24T06:39:29;5.87;;;5.27;;
19673;SDS011;9986;50.610;7.230;2023-01-24T06:42:10;4.80;;;4.40;;
19673;SDS011;9986;50.610;7.230;2023-01-24T06:44:51;4.20;;;3.73;;
19673;SDS011;9986;50.610;7.230;2023-01-24T06:47:31;4.33;;;3.93;;
19673;SDS011;9986;50.610;7.230;2023-01-24T06:50:17;4.33;;;3.93;;
19673;SDS011;9986;50.610;7.230;2023-01-24T06:55:44;4.40;;;3.90;;
19673;SDS011;9986;50.610;7.230;2023-01-24T06:58:25;5.13;;;4.63;;
19673;SDS011;9986;50.610;7.230;2023-01-24T07:01:05;5.00;;;4.20;;
19673;SDS011;9986;50.610;7.230;2023-01-24T07:03:51;4.07;;;3.77;;
19673;SDS011;9986;50.610;7.230;2023-01-24T07:06:40;5.70;;;4.53;;
19673;SDS011;9986;50.610;7.230;2023-01-24T07:09:20;3.90;;;3.60;;
19673;SDS011;9986;50.610;7.230;2023-01-24T07:14:35;4.83;;;4.33;;
19673;SDS011;9986;50.610;7.230;2023-01-24T07:17:21;5.57;;;4.53;;
19673;SDS011;9986;50.610;7.230;2023-01-24T07:20:09;4.40;;;4.00;;
19673;SDS011;9986;50.610;7.230;2023-01-24T07:22:51;4.40;;;4.00;;
19673;SDS011;9986;50.610;7.230;2023-01-24T07:25:38;5.03;;;4.53;;
19673;SDS011;9986;50.610;7.230;2023-01-24T07:28:24;4.63;;;4.07;;
19673;SDS011;9986;50.610;7.230;2023-01-24T07:31:05;3.97;;;3.53;;
19673;SDS011;9986;50.610;7.230;2023-01-24T07:33:52;4.30;;;3.90;;
19673;SDS011;9986;50.610;7.230;2023-01-24T07:36:32;4.23;;;3.83;;
19673;SDS011;9986;50.610;7.230;2023-01-24T07:39:13;4.70;;;4.30;;
19673;SDS011;9986;50.610;7.230;2023-01-24T07:41:52;4.70;;;4.30;;
19673;SDS011;9986;50.610;7.230;2023-01-24T07:44:33;5.63;;;5.13;;
19673;SDS011;9986;50.610;7.230;2023-01-24T07:47:19;4.60;;;4.10;;
19673;SDS011;9986;50.610;7.230;2023-01-24T07:49:58;4.23;;;3.83;;
19673;SDS011;9986;50.610;7.230;2023-01-24T07:52:51;3.77;;;3.47;;
19673;SDS011;9986;50.610;7.230;2023-01-24T07:55:31;4.20;;;3.80;;
19673;SDS011;9986;50.610;7.230;2023-01-24T07:58:13;3.97;;;3.53;;
19673;SDS011;9986;50.610;7.230;2023-01-24T08:00:53;4.73;;;4.23;;
19673;SDS011;9986;50.610;7.230;2023-01-24T08:06:09;4.50;;;4.10;;
19673;SDS011;9986;50.610;7.230;2023-01-24T08:14:04;5.10;;;4.70;;
19673;SDS011;9986;50.610;7.230;2023-01-24T08:16:50;6.20;;;5.57;;
19673;SDS011;9986;50.610;7.230;2023-01-24T08:19:30;4.60;;;4.20;;
19673;SDS011;9986;50.610;7.230;2023-01-24T08:22:12;5.37;;;4.43;;
19673;SDS011;9986;50.610;7.230;2023-01-24T08:27:26;4.90;;;4.50;;
19673;SDS011;9986;50.610;7.230;2023-01-24T08:30:08;4.33;;;3.93;;
19673;SDS011;9986;50.610;7.230;2023-01-24T08:35:20;4.87;;;4.47;;
19673;SDS011;9986;50.610;7.230;2023-01-24T08:38:06;5.10;;;4.60;;
19673;SDS011;9986;50.610;7.230;2023-01-24T08:40:45;6.03;;;5.43;;
19673;SDS011;9986;50.610;7.230;2023-01-24T08:46:01;6.07;;;5.47;;
19673;SDS011;9986;50.610;7.230;2023-01-24T08:48:41;5.93;;;5.43;;
19673;SDS011;9986;50.610;7.230;2023-01-24T08:51:28;7.90;;;5.20;;
19673;SDS011;9986;50.610;7.230;2023-01-24T08:54:08;5.90;;;5.40;;
19673;SDS011;9986;50.610;7.230;2023-01-24T08:56:54;5.77;;;5.03;;
19673;SDS011;9986;50.610;7.230;2023-01-24T09:02:04;6.23;;;5.60;;
19673;SDS011;9986;50.610;7.230;2023-01-24T09:04:45;6.27;;;5.70;;
19673;SDS011;9986;50.610;7.230;2023-01-24T09:10:01;7.13;;;6.27;;
19673;SDS011;9986;50.610;7.230;2023-01-24T09:12:42;6.50;;;5.90;;
19673;SDS011;9986;50.610;7.230;2023-01-24T09:17:51;7.00;;;6.00;;
19673;SDS011;9986;50.610;7.230;2023-01-24T09:23:00;7.27;;;5.90;;
19673;SDS011;9986;50.610;7.230;2023-01-24T09:25:50;7.07;;;6.20;;
19673;SDS011;9986;50.610;7.230;2023-01-24T09:28:37;7.80;;;6.53;;
19673;SDS011;9986;50.610;7.230;2023-01-24T09:31:17;6.53;;;5.73;;
19673;SDS011;9986;50.610;7.230;2023-01-24T09:34:03;9.10;;;6.50;;
19673;SDS011;9986;50.610;7.230;2023-01-24T09:36:43;11.93;;;8.40;;
19673;SDS011;9986;50.610;7.230;2023-01-24T09:39:25;12.73;;;8.80;;
19673;SDS011;9986;50.610;7.230;2023-01-24T09:44:53;7.30;;;5.90;;
19673;SDS011;9986;50.610;7.230;2023-01-24T09:47:57;6.40;;;5.23;;
19673;SDS011;9986;50.610;7.230;2023-01-24T09:50:45;7.03;;;5.93;;
19673;SDS011;9986;50.610;7.230;2023-01-24T09:53:35;6.23;;;5.33;;
19673;SDS011;9986;50.610;7.230;2023-01-24T09:56:15;6.67;;;5.97;;
19673;SDS011;9986;50.610;7.230;2023-01-24T09:58:57;6.40;;;5.80;;
19673;SDS011;9986;50.610;7.230;2023-01-24T10:01:44;7.23;;;5.83;;
19673;SDS011;9986;50.610;7.230;2023-01-24T10:04:34;5.90;;;5.33;;
19673;SDS011;9986;50.610;7.230;2023-01-24T10:09:54;6.60;;;5.90;;
19673;SDS011;9986;50.610;7.230;2023-01-24T10:15:19;6.60;;;5.90;;
19673;SDS011;9986;50.610;7.230;2023-01-24T10:21:20;8.23;;;6.23;;
19673;SDS011;9986;50.610;7.230;2023-01-24T10:24:11;7.97;;;6.73;;
19673;SDS011;9986;50.610;7.230;2023-01-24T10:26:51;9.23;;;6.43;;
19673;SDS011;9986;50.610;7.230;2023-01-24T10:29:34;7.20;;;6.17;;
19673;SDS011;9986;50.610;7.230;2023-01-24T10:32:24;7.77;;;6.97;;
19673;SDS011;9986;50.610;7.230;2023-01-24T10:35:11;9.60;;;8.57;;
19673;SDS011;9986;50.610;7.230;2023-01-24T10:37:52;9.23;;;7.93;;
19673;SDS011;9986;50.610;7.230;2023-01-24T10:40:48;8.73;;;7.27;;
19673;SDS011;9986;50.610;7.230;2023-01-24T10:43:36;8.57;;;7.17;;
19673;SDS011;9986;50.610;7.230;2023-01-24T10:46:28;7.60;;;6.43;;
19673;SDS011;9986;50.610;7.230;2023-01-24T10:52:08;7.63;;;6.63;;
19673;SDS011;9986;50.610;7.230;2023-01-24T10:54:50;8.53;;;7.07;;
19673;SDS011;9986;50.610;7.230;2023-01-24T10:57:32;7.47;;;6.67;;
19673;SDS011;9986;50.610;7.230;2023-01-24T11:00:17;7.00;;;6.20;;
19673;SDS011;9986;50.610;7.230;2023-01-24T11:02:58;7.10;;;6.40;;
19673;SDS011;9986;50.610;7.230;2023-01-24T11:05:40;6.57;;;5.97;;
19673;SDS011;9986;50.610;7.230;2023-01-24T11:08:22;7.67;;;6.33;;
19673;SDS011;9986;50.610;7.230;2023-01-24T11:13:55;6.43;;;5.83;;
19673;SDS011;9986;50.610;7.230;2023-01-24T11:16:44;6.83;;;6.13;;
19673;SDS011;9986;50.610;7.230;2023-01-24T11:19:24;8.17;;;6.27;;
19673;SDS011;9986;50.610;7.230;2023-01-24T11:24:41;7.00;;;6.30;;
19673;SDS011;9986;50.610;7.230;2023-01-24T11:27:21;7.43;;;6.73;;
19673;SDS011;9986;50.610;7.230;2023-01-24T11:30:14;8.00;;;6.87;;
19673;SDS011;9986;50.610;7.230;2023-01-24T11:32:58;6.90;;;6.23;;
19673;SDS011;9986;50.610;7.230;2023-01-24T11:35:44;8.50;;;6.73;;
19673;SDS011;9986;50.610;7.230;2023-01-24T11:38:27;7.07;;;6.23;;
19673;SDS011;9986;50.610;7.230;2023-01-24T11:41:16;8.00;;;7.17;;
19673;SDS011;9986;50.610;7.230;2023-01-24T11:49:50;7.83;;;6.70;;
19673;SDS011;9986;50.610;7.230;2023-01-24T11:52:43;7.77;;;6.73;;
19673;SDS011;9986;50.610;7.230;2023-01-24T11:55:30;6.90;;;6.23;;
19673;SDS011;9986;50.610;7.230;2023-01-24T11:58:23;7.10;;;6.47;;
19673;SDS011;9986;50.610;7.230;2023-01-24T12:01:07;7.67;;;6.77;;
19673;SDS011;9986;50.610;7.230;2023-01-24T12:06:26;7.00;;;6.23;;
19673;SDS011;9986;50.610;7.230;2023-01-24T12:09:20;6.93;;;5.87;;
19673;SDS011;9986;50.610;7.230;2023-01-24T12:12:03;6.67;;;5.87;;
19673;SDS011;9986;50.610;7.230;2023-01-24T12:14:49;7.63;;;6.50;;
19673;SDS011;9986;50.610;7.230;2023-01-24T12:20:22;7.33;;;6.20;;
19673;SDS011;9986;50.610;7.230;2023-01-24T12:28:37;6.93;;;6.33;;
19673;SDS011;9986;50.610;7.230;2023-01-24T12:31:23;8.80;;;7.13;;
19673;SDS011;9986;50.610;7.230;2023-01-24T12:34:09;10.20;;;8.33;;
19673;SDS011;9986;50.610;7.230;2023-01-24T12:37:01;9.10;;;6.93;;
19673;SDS011;9986;50.610;7.230;2023-01-24T12:42:21;7.93;;;7.10;;
19673;SDS011;9986;50.610;7.230;2023-01-24T12:47:47;7.47;;;6.67;;
19673;SDS011;9986;50.610;7.230;2023-01-24T12:50:30;7.67;;;6.53;;
19673;SDS011;9986;50.610;7.230;2023-01-24T12:55:47;7.40;;;6.70;;
19673;SDS011;9986;50.610;7.230;2023-01-24T12:58:29;7.40;;;6.50;;
19673;SDS011;9986;50.610;7.230;2023-01-24T13:03:58;7.77;;;6.83;;
19673;SDS011;9986;50.610;7.230;2023-01-24T13:09:23;8.40;;;6.63;;
19673;SDS011;9986;50.610;7.230;2023-01-24T13:14:50;9.43;;;8.30;;
19673;SDS011;9986;50.610;7.230;2023-01-24T13:20:23;8.33;;;7.43;;
19673;SDS011;9986;50.610;7.230;2023-01-24T13:26:09;6.93;;;6.17;;
19673;SDS011;9986;50.610;7.230;2023-01-24T13:29:00;7.53;;;6.73;;
19673;SDS011;9986;50.610;7.230;2023-01-24T13:31:51;8.47;;;7.50;;
19673;SDS011;9986;50.610;7.230;2023-01-24T13:34:33;8.40;;;7.60;;
19673;SDS011;9986;50.610;7.230;2023-01-24T13:39:59;8.47;;;7.37;;
19673;SDS011;9986;50.610;7.230;2023-01-24T13:42:40;8.77;;;6.57;;
19673;SDS011;9986;50.610;7.230;2023-01-24T13:45:47;9.17;;;7.27;;
19673;SDS011;9986;50.610;7.230;2023-01-24T13:51:48;7.47;;;6.43;;
19673;SDS011;9986;50.610;7.230;2023-01-24T13:54:35;8.20;;;6.83;;
19673;SDS011;9986;50.610;7.230;2023-01-24T13:57:19;7.27;;;6.50;;
19673;SDS011;9986;50.610;7.230;2023-01-24T14:00:17;7.17;;;6.47;;
19673;SDS011;9986;50.610;7.230;2023-01-24T14:03:04;8.07;;;6.47;;
19673;SDS011;9986;50.610;7.230;2023-01-24T14:05:53;7.43;;;6.73;;
19673;SDS011;9986;50.610;7.230;2023-01-24T14:11:50;7.97;;;6.10;;
19673;SDS011;9986;50.610;7.230;2023-01-24T14:17:30;8.07;;;7.20;;
19673;SDS011;9986;50.610;7.230;2023-01-24T14:20:36;7.73;;;6.93;;
19673;SDS011;9986;50.610;7.230;2023-01-24T14:23:19;6.27;;;5.67;;
19673;SDS011;9986;50.610;7.230;2023-01-24T14:26:00;8.30;;;6.90;;
19673;SDS011;9986;50.610;7.230;2023-01-24T14:28:42;7.27;;;6.53;;
19673;SDS011;9986;50.610;7.230;2023-01-24T14:31:32;8.27;;;7.30;;
19673;SDS011;9986;50.610;7.230;2023-01-24T14:34:13;8.83;;;7.67;;
19673;SDS011;9986;50.610;7.230;2023-01-24T14:37:02;7.67;;;6.43;;
19673;SDS011;9986;50.610;7.230;2023-01-24T14:45:00;9.47;;;6.90;;
19673;SDS011;9986;50.610;7.230;2023-01-24T14:47:40;6.87;;;6.10;;
19673;SDS011;9986;50.610;7.230;2023-01-24T14:50:29;8.57;;;7.67;;
19673;SDS011;9986;50.610;7.230;2023-01-24T14:55:39;9.30;;;6.37;;
19673;SDS011;9986;50.610;7.230;2023-01-24T15:01:01;7.30;;;6.43;;
19673;SDS011;9986;50.610;7.230;2023-01-24T15:03:42;7.07;;;6.33;;
19673;SDS011;9986;50.610;7.230;2023-01-24T15:06:24;7.80;;;7.03;;
19673;SDS011;9986;50.610;7.230;2023-01-24T15:09:05;7.73;;;6.57;;
19673;SDS011;9986;50.610;7.230;2023-01-24T15:11:50;8.03;;;7.23;;
19673;SDS011;9986;50.610;7.230;2023-01-24T15:14:36;8.27;;;6.97;;
19673;SDS011;9986;50.610;7.230;2023-01-24T15:19:55;8.83;;;7.00;;
19673;SDS011;9986;50.610;7.230;2023-01-24T15:25:15;9.20;;;7.57;;
19673;SDS011;9986;50.610;7.230;2023-01-24T15:27:56;8.57;;;6.80;;
19673;SDS011;9986;50.610;7.230;2023-01-24T15:30:36;8.90;;;8.00;;
19673;SDS011;9986;50.610;7.230;2023-01-24T15:36:21;8.73;;;7.50;;
19673;SDS011;9986;50.610;7.230;2023-01-24T15:39:02;8.20;;;7.23;;
19673;SDS011;9986;50.610;7.230;2023-01-24T15:41:48;8.03;;;7.03;;
19673;SDS011;9986;50.610;7.230;2023-01-24T15:44:41;9.00;;;7.60;;
19673;SDS011;9986;50.610;7.230;2023-01-24T15:47:29;8.77;;;7.63;;
19673;SDS011;9986;50.610;7.230;2023-01-24T15:50:16;8.13;;;7.03;;
19673;SDS011;9986;50.610;7.230;2023-01-24T15:55:51;8.60;;;7.40;;
19673;SDS011;9986;50.610;7.230;2023-01-24T15:58:36;8.67;;;7.40;;
19673;SDS011;9986;50.610;7.230;2023-01-24T16:01:19;8.37;;;7.03;;
19673;SDS011;9986;50.610;7.230;2023-01-24T16:04:11;8.63;;;7.07;;
19673;SDS011;9986;50.610;7.230;2023-01-24T16:06:51;8.57;;;7.67;;
19673;SDS011;9986;50.610;7.230;2023-01-24T16:09:34;7.87;;;7.07;;
19673;SDS011;9986;50.610;7.230;2023-01-24T16:14:50;9.17;;;7.47;;
19673;SDS011;9986;50.610;7.230;2023-01-24T16:17:30;8.20;;;7.03;;
19673;SDS011;9986;50.610;7.230;2023-01-24T16:20:15;8.33;;;7.53;;
19673;SDS011;9986;50.610;7.230;2023-01-24T16:22:56;9.63;;;7.97;;
19673;SDS011;9986;50.610;7.230;2023-01-24T16:25:36;9.20;;;7.93;;
19673;SDS011;9986;50.610;7.230;2023-01-24T16:28:23;9.07;;;7.50;;
19673;SDS011;9986;50.610;7.230;2023-01-24T16:31:04;9.53;;;8.23;;
19673;SDS011;9986;50.610;7.230;2023-01-24T16:33:47;10.37;;;8.10;;
19673;SDS011;9986;50.610;7.230;2023-01-24T16:39:05;9.40;;;8.33;;
19673;SDS011;9986;50.610;7.230;2023-01-24T16:41:44;10.90;;;8.60;;
19673;SDS011;9986;50.610;7.230;2023-01-24T16:44:25;9.83;;;8.07;;
19673;SDS011;9986;50.610;7.230;2023-01-24T16:47:05;10.40;;;7.73;;
19673;SDS011;9986;50.610;7.230;2023-01-24T16:55:03;8.80;;;7.90;;
19673;SDS011;9986;50.610;7.230;2023-01-24T16:57:50;8.80;;;7.90;;
19673;SDS011;9986;50.610;7.230;2023-01-24T17:00:31;7.70;;;6.90;;
19673;SDS011;9986;50.610;7.230;2023-01-24T17:03:18;8.53;;;6.77;;
19673;SDS011;9986;50.610;7.230;2023-01-24T17:06:05;10.63;;;9.03;;
19673;SDS011;9986;50.610;7.230;2023-01-24T17:08:52;9.10;;;7.60;;
19673;SDS011;9986;50.610;7.230;2023-01-24T17:11:32;9.23;;;8.20;;
19673;SDS011;9986;50.610;7.230;2023-01-24T17:14:17;9.67;;;8.67;;
19673;SDS011;9986;50.610;7.230;2023-01-24T17:19:35;10.97;;;9.07;;
19673;SDS011;9986;50.610;7.230;2023-01-24T17:22:15;11.50;;;8.60;;
19673;SDS011;9986;50.610;7.230;2023-01-24T17:25:01;10.93;;;9.47;;
19673;SDS011;9986;50.610;7.230;2023-01-24T17:27:42;10.93;;;9.13;;
19673;SDS011;9986;50.610;7.230;2023-01-24T17:30:21;9.87;;;8.87;;
19673;SDS011;9986;50.610;7.230;2023-01-24T17:33:01;10.00;;;8.57;;
19673;SDS011;9986;50.610;7.230;2023-01-24T17:35:42;10.80;;;9.17;;
19673;SDS011;9986;50.610;7.230;2023-01-24T17:40:51;11.43;;;10.00;;
19673;SDS011;9986;50.610;7.230;2023-01-24T17:46:07;12.40;;;9.53;;
19673;SDS011;9986;50.610;7.230;2023-01-24T17:48:48;11.57;;;9.83;;
19673;SDS011;9986;50.610;7.230;2023-01-24T17:51:33;11.50;;;10.20;;
19673;SDS011;9986;50.610;7.230;2023-01-24T17:54:13;13.40;;;10.43;;
19673;SDS011;9986;50.610;7.230;2023-01-24T17:56:54;14.90;;;12.03;;
19673;SDS011;9986;50.610;7.230;2023-01-24T17:59:34;13.93;;;11.40;;
19673;SDS011;9986;50.610;7.230;2023-01-24T18:02:14;15.03;;;11.37;;
19673;SDS011;9986;50.610;7.230;2023-01-24T18:07:29;12.67;;;10.40;;
19673;SDS011;9986;50.610;7.230;2023-01-24T18:10:10;14.40;;;10.33;;
19673;SDS011;9986;50.610;7.230;2023-01-24T18:15:20;11.00;;;9.33;;
19673;SDS011;9986;50.610;7.230;2023-01-24T18:18:00;14.53;;;10.70;;
19673;SDS011;9986;50.610;7.230;2023-01-24T18:20:41;11.10;;;9.47;;
19673;SDS011;9986;50.610;7.230;2023-01-24T18:23:21;12.07;;;9.87;;
19673;SDS011;9986;50.610;7.230;2023-01-24T18:26:02;12.37;;;10.37;;
19673;SDS011;9986;50.610;7.230;2023-01-24T18:31:28;15.03;;;10.53;;
19673;SDS011;9986;50.610;7.230;2023-01-24T18:34:08;15.60;;;11.03;;
19673;SDS011;9986;50.610;7.230;2023-01-24T18:36:49;12.77;;;10.07;;
19673;SDS011;9986;50.610;7.230;2023-01-24T18:39:29;13.73;;;9.23;;
19673;SDS011;9986;50.610;7.230;2023-01-24T18:42:11;11.43;;;8.93;;
19673;SDS011;9986;50.610;7.230;2023-01-24T18:44:51;11.27;;;8.90;;
19673;SDS011;9986;50.610;7.230;2023-01-24T18:47:38;12.93;;;10.60;;
19673;SDS011;9986;50.610;7.230;2023-01-24T18:52:52;14.03;;;10.17;;
19673;SDS011;9986;50.610;7.230;2023-01-24T18:55:33;12.33;;;10.13;;
19673;SDS011;9986;50.610;7.230;2023-01-24T18:58:13;10.33;;;8.90;;
19673;SDS011;9986;50.610;7.230;2023-01-24T19:00:53;12.43;;;9.50;;
19673;SDS011;9986;50.610;7.230;2023-01-24T19:06:03;12.67;;;10.67;;
19673;SDS011;9986;50.610;7.230;2023-01-24T19:08:44;14.20;;;10.87;;
19673;SDS011;9986;50.610;7.230;2023-01-24T19:11:24;13.77;;;10.17;;
19673;SDS011;9986;50.610;7.230;2023-01-24T19:14:05;11.37;;;9.23;;
19673;SDS011;9986;50.610;7.230;2023-01-24T19:16:46;13.37;;;9.87;;
19673;SDS011;9986;50.610;7.230;2023-01-24T19:19:27;16.30;;;12.17;;
19673;SDS011;9986;50.610;7.230;2023-01-24T19:24:36;9.93;;;8.50;;
19673;SDS011;9986;50.610;7.230;2023-01-24T19:27:16;14.10;;;10.90;;
19673;SDS011;9986;50.610;7.230;2023-01-24T19:30:02;14.53;;;11.20;;
19673;SDS011;9986;50.610;7.230;2023-01-24T19:32:46;13.77;;;11.00;;
19673;SDS011;9986;50.610;7.230;2023-01-24T19:35:26;18.63;;;13.67;;
19673;SDS011;9986;50.610;7.230;2023-01-24T19:38:13;17.20;;;12.97;;
19673;SDS011;9986;50.610;7.230;2023-01-24T19:40:53;18.80;;;11.77;;
19673;SDS011;9986;50.610;7.230;2023-01-24T19:43:34;16.30;;;11.93;;
19673;SDS011;9986;50.610;7.230;2023-01-24T19:46:14;15.73;;;11.20;;
19673;SDS011;9986;50.610;7.230;2023-01-24T19:54:08;16.77;;;12.87;;
19673;SDS011;9986;50.610;7.230;2023-01-24T19:56:48;15.37;;;11.50;;
19673;SDS011;9986;50.610;7.230;2023-01-24T20:02:05;14.37;;;10.30;;
19673;SDS011;9986;50.610;7.230;2023-01-24T20:04:46;13.63;;;9.20;;
19673;SDS011;9986;50.610;7.230;2023-01-24T20:10:12;13.73;;;9.17;;
19673;SDS011;9986;50.610;7.230;2023-01-24T20:15:24;13.30;;;9.90;;
19673;SDS011;9986;50.610;7.230;2023-01-24T20:20:49;16.10;;;10.60;;
19673;SDS011;9986;50.610;7.230;2023-01-24T20:23:30;12.10;;;10.37;;
19673;SDS011;9986;50.610;7.230;2023-01-24T20:26:09;11.93;;;9.30;;
19673;SDS011;9986;50.610;7.230;2023-01-24T20:31:19;15.50;;;10.27;;
19673;SDS011;9986;50.610;7.230;2023-01-24T20:34:06;12.50;;;9.70;;
19673;SDS011;9986;50.610;7.230;2023-01-24T20:39:28;12.70;;;9.80;;
19673;SDS011;9986;50.610;7.230;2023-01-24T20:42:08;12.80;;;9.37;;
19673;SDS011;9986;50.610;7.230;2023-01-24T20:47:19;11.03;;;8.70;;
19673;SDS011;9986;50.610;7.230;2023-01-24T20:50:06;13.50;;;9.80;;
19673;SDS011;9986;50.610;7.230;2023-01-24T20:55:25;13.23;;;9.37;;